Time;durP1;ratioP1;P1;durP2;ratioP2;P2;SDS_P1;SDS_P2;PMS_P1;PMS_P2;Temp;Humidity;BMP_temperature;BMP_pressure;BME280_temperature;BME280_humidity;BME280_pressure;Samples;Min_cycle;Max_cycle;Signal;HPM_P1;HPM_P2
2023/07/05 00:01:31;;;;;;;1.70;0.80;;;18.10;99.90;;;;;;4977100;28;20046;-78
2023/07/05 00:03:57;;;;;;;3.10;1.42;;;18.20;99.90;;;;;;4975847;28;20089;-78
2023/07/05 00:06:22;;;;;;;2.40;1.17;;;18.20;99.90;;;;;;4978901;28;20030;-77
2023/07/05 00:08:49;;;;;;;4.45;1.23;;;18.20;99.90;;;;;;4977878;28;20053;-77
2023/07/05 00:11:15;;;;;;;1.40;1.23;;;18.20;99.90;;;;;;4978939;28;20026;-78
2023/07/05 00:13:41;;;;;;;2.35;0.90;;;18.10;99.90;;;;;;4979201;28;20226;-78
2023/07/05 00:16:09;;;;;;;1.30;0.90;;;18.10;99.90;;;;;;4980804;28;20038;-78
2023/07/05 00:18:36;;;;;;;2.15;0.90;;;18.00;99.90;;;;;;4980323;28;20038;-78
2023/07/05 00:21:04;;;;;;;1.77;1.60;;;18.10;99.90;;;;;;4978933;28;20090;-78
2023/07/05 00:23:32;;;;;;;3.55;0.80;;;18.10;99.90;;;;;;4980031;28;20050;-79
2023/07/05 00:25:58;;;;;;;1.20;1.10;;;18.10;99.90;;;;;;4980152;28;20090;-78
2023/07/05 00:28:24;;;;;;;1.25;1.02;;;18.10;99.90;;;;;;4978423;28;20042;-79
2023/07/05 00:30:50;;;;;;;2.83;1.13;;;18.20;99.90;;;;;;4975480;28;20215;-79
2023/07/05 00:33:16;;;;;;;1.27;0.90;;;18.20;99.90;;;;;;4977760;28;20026;-78
2023/07/05 00:35:50;;;;;;;4.95;1.83;;;18.30;99.90;;;;;;4979848;28;20057;-78
2023/07/05 00:38:17;;;;;;;5.70;1.50;;;18.30;99.90;;;;;;4976894;28;20058;-79
2023/07/05 00:40:44;;;;;;;0.90;0.90;;;18.30;99.90;;;;;;4976562;28;20341;-79
2023/07/05 00:43:11;;;;;;;5.05;1.00;;;18.40;99.90;;;;;;4978235;28;20104;-79
2023/07/05 00:45:36;;;;;;;31.30;1.58;;;18.40;99.90;;;;;;4980314;28;20119;-77
2023/07/05 00:48:03;;;;;;;2.08;1.05;;;18.40;99.90;;;;;;4981803;28;20019;-77
2023/07/05 00:50:37;;;;;;;2.55;0.93;;;18.50;99.90;;;;;;4980513;28;20034;-78
2023/07/05 00:53:04;;;;;;;1.02;0.90;;;18.50;99.90;;;;;;4974614;28;20027;-78
2023/07/05 00:55:29;;;;;;;0.80;0.80;;;18.50;99.90;;;;;;4975337;28;20174;-78
2023/07/05 00:57:55;;;;;;;1.10;1.00;;;18.50;99.90;;;;;;4973032;28;20487;-78
2023/07/05 01:00:22;;;;;;;1.48;1.10;;;18.40;99.90;;;;;;4979687;28;20345;-79
2023/07/05 01:02:52;;;;;;;0.98;0.98;;;18.40;99.90;;;;;;4976082;28;20263;-79
2023/07/05 01:05:18;;;;;;;2.28;1.40;;;18.30;99.90;;;;;;4982138;28;20369;-77
2023/07/05 01:07:45;;;;;;;4.78;1.27;;;18.30;99.90;;;;;;4981039;28;20303;-79
2023/07/05 01:10:20;;;;;;;0.88;0.73;;;18.30;99.90;;;;;;4978996;28;20019;-79
2023/07/05 01:12:58;;;;;;;3.65;1.40;;;18.10;99.90;;;;;;4973345;28;20033;-80
2023/07/05 01:15:39;;;;;;;3.67;1.27;;;17.90;99.90;;;;;;4976913;28;20081;-78
2023/07/05 01:18:27;;;;;;;1.48;1.20;;;17.70;99.90;;;;;;4981603;28;20027;-78
2023/07/05 01:21:15;;;;;;;2.58;1.30;;;17.40;99.90;;;;;;4983422;28;20065;-78
2023/07/05 01:24:36;;;;;;;1.77;0.85;;;17.30;99.90;;;;;;4975431;28;20033;-78
2023/07/05 01:27:23;;;;;;;4.07;0.90;;;17.10;99.90;;;;;;4944663;28;20345;-79
2023/07/05 01:30:07;;;;;;;3.55;2.00;;;17.10;99.90;;;;;;4983620;28;20258;-78
2023/07/05 01:32:36;;;;;;;4.70;1.30;;;17.00;99.90;;;;;;4983585;28;20335;-79
2023/07/05 01:35:05;;;;;;;1.23;1.00;;;16.90;99.90;;;;;;4977213;28;20042;-79
2023/07/05 01:37:36;;;;;;;0.90;0.90;;;16.80;99.90;;;;;;4981620;28;20306;-78
2023/07/05 01:40:20;;;;;;;1.20;1.10;;;16.80;99.90;;;;;;4981725;28;20030;-78
2023/07/05 01:42:48;;;;;;;1.35;1.25;;;16.80;99.90;;;;;;4977583;28;20384;-79
2023/07/05 01:45:14;;;;;;;2.45;1.00;;;16.80;99.90;;;;;;4978071;28;20049;-78
2023/07/05 01:47:57;;;;;;;3.25;0.70;;;16.80;99.90;;;;;;4973329;28;20019;-78
2023/07/05 01:50:34;;;;;;;3.55;1.30;;;16.80;99.90;;;;;;4974796;28;20237;-78
2023/07/05 01:53:17;;;;;;;1.05;1.05;;;16.90;99.90;;;;;;4974442;28;20117;-79
2023/07/05 01:56:20;;;;;;;1.67;1.10;;;16.90;99.90;;;;;;4974837;28;20113;-79
2023/07/05 01:58:47;;;;;;;1.30;1.20;;;16.90;99.90;;;;;;4976406;28;20027;-79
2023/07/05 02:01:15;;;;;;;3.25;1.50;;;16.90;99.90;;;;;;4973054;28;20023;-79
2023/07/05 02:03:42;;;;;;;1.35;1.23;;;16.90;99.90;;;;;;4974320;28;20031;-78
2023/07/05 02:06:12;;;;;;;1.73;0.95;;;16.90;99.90;;;;;;4976623;28;20023;-79
2023/07/05 02:08:39;;;;;;;;;;;16.90;99.90;;;;;;4971170;28;20054;-79
2023/07/05 02:11:05;;;;;;;1.48;1.00;;;16.90;99.90;;;;;;4970460;28;19910;-81
2023/07/05 02:13:31;;;;;;;1.90;1.10;;;16.90;99.90;;;;;;4969926;28;20033;-79
2023/07/05 02:15:57;;;;;;;2.97;0.80;;;16.90;99.90;;;;;;4970717;28;20572;-79
2023/07/05 02:18:23;;;;;;;1.95;1.02;;;16.80;99.90;;;;;;4971473;28;20106;-79
2023/07/05 02:20:48;;;;;;;0.95;0.82;;;16.90;99.90;;;;;;4969549;28;20396;-79
2023/07/05 02:23:14;;;;;;;3.05;1.23;;;17.00;99.90;;;;;;4971530;28;20062;-80
2023/07/05 02:25:40;;;;;;;1.23;1.00;;;17.20;99.90;;;;;;4970153;28;20476;-79
2023/07/05 02:28:10;;;;;;;0.95;0.90;;;17.20;99.90;;;;;;4971359;28;20031;-78
2023/07/05 02:30:37;;;;;;;2.03;1.10;;;17.20;99.90;;;;;;4970049;28;20019;-78
2023/07/05 02:33:02;;;;;;;1.20;1.08;;;17.40;99.90;;;;;;4971786;28;20396;-79
2023/07/05 02:35:28;;;;;;;1.92;1.58;;;17.50;99.90;;;;;;4971774;28;20059;-78
2023/07/05 02:37:55;;;;;;;1.60;1.08;;;17.70;99.90;;;;;;4971769;28;20035;-78
2023/07/05 02:40:22;;;;;;;1.27;0.80;;;17.80;99.90;;;;;;4971234;28;20019;-79
2023/07/05 02:42:48;;;;;;;1.10;0.95;;;17.80;99.90;;;;;;4972849;28;20026;-79
2023/07/05 02:45:13;;;;;;;2.08;1.48;;;17.80;99.90;;;;;;4972005;28;20023;-79
2023/07/05 02:47:39;;;;;;;1.67;1.25;;;17.80;99.90;;;;;;4970100;28;20042;-79
2023/07/05 02:50:05;;;;;;;2.53;1.02;;;17.80;99.90;;;;;;4972322;28;20030;-79
2023/07/05 02:52:31;;;;;;;3.17;1.40;;;17.80;99.90;;;;;;4973116;28;20110;-80
2023/07/05 02:54:56;;;;;;;1.20;1.08;;;17.80;99.90;;;;;;4975114;28;20023;-79
2023/07/05 02:57:22;;;;;;;2.13;1.27;;;17.80;99.90;;;;;;4974257;28;20047;-79
2023/07/05 02:59:47;;;;;;;1.45;1.30;;;17.80;99.90;;;;;;4971081;28;20105;-78
2023/07/05 03:02:13;;;;;;;1.50;1.23;;;17.80;99.90;;;;;;4971417;28;20034;-79
2023/07/05 03:04:41;;;;;;;1.20;1.10;;;17.80;99.90;;;;;;4972953;28;20042;-78
2023/07/05 03:07:08;;;;;;;2.75;1.38;;;17.80;99.90;;;;;;4972903;28;20076;-79
2023/07/05 03:09:33;;;;;;;1.50;1.13;;;17.90;99.90;;;;;;4972698;28;20085;-78
2023/07/05 03:11:59;;;;;;;1.05;0.90;;;17.80;99.90;;;;;;4973047;28;20496;-78
2023/07/05 03:14:25;;;;;;;1.55;1.23;;;17.80;99.90;;;;;;4970767;28;20054;-79
2023/07/05 03:16:50;;;;;;;2.58;1.63;;;17.80;99.90;;;;;;4970956;28;20120;-78
2023/07/05 03:19:16;;;;;;;1.33;1.10;;;17.70;99.90;;;;;;4972049;28;20022;-78
2023/07/05 03:21:43;;;;;;;1.92;1.20;;;17.60;99.90;;;;;;4971809;28;20479;-78
2023/07/05 03:24:08;;;;;;;1.30;1.20;;;17.50;99.90;;;;;;4971950;28;20022;-78
2023/07/05 03:26:34;;;;;;;1.45;1.00;;;17.40;99.90;;;;;;4970279;28;20031;-78
2023/07/05 03:29:02;;;;;;;4.05;1.58;;;17.20;99.90;;;;;;4970671;28;20057;-79
2023/07/05 03:31:28;;;;;;;1.83;1.63;;;17.20;99.90;;;;;;4971911;28;20372;-78
2023/07/05 03:33:54;;;;;;;1.27;1.17;;;17.10;99.90;;;;;;4970855;28;20484;-78
2023/07/05 03:36:20;;;;;;;1.77;1.42;;;17.00;99.90;;;;;;4971738;28;20496;-79
2023/07/05 03:38:48;;;;;;;1.58;1.20;;;16.80;99.90;;;;;;4980800;28;20033;-78
2023/07/05 03:41:18;;;;;;;2.42;1.15;;;16.70;99.90;;;;;;4991132;28;20072;-78
2023/07/05 03:43:48;;;;;;;1.45;0.90;;;16.80;99.90;;;;;;4990661;28;20054;-79
2023/07/05 03:46:15;;;;;;;1.38;1.27;;;16.70;99.90;;;;;;4991249;28;20030;-80
2023/07/05 03:48:44;;;;;;;1.40;1.10;;;16.80;99.90;;;;;;4991155;28;20096;-79
2023/07/05 03:51:11;;;;;;;2.33;1.52;;;16.80;99.90;;;;;;4991226;28;20109;-78
2023/07/05 03:53:37;;;;;;;2.35;0.90;;;16.80;99.90;;;;;;4989677;28;20026;-78
2023/07/05 03:56:06;;;;;;;1.67;1.27;;;16.70;99.90;;;;;;4990844;28;20550;-78
2023/07/05 03:58:32;;;;;;;1.85;1.17;;;16.70;99.90;;;;;;4990741;28;20030;-78
2023/07/05 04:01:14;;;;;;;2.63;2.15;;;16.80;99.90;;;;;;4989470;28;20026;-78
2023/07/05 04:03:41;;;;;;;2.60;1.20;;;16.90;99.90;;;;;;4985672;28;20491;-78
2023/07/05 04:06:06;;;;;;;1.33;1.23;;;17.10;99.90;;;;;;4989691;28;20483;-78
2023/07/05 04:08:32;;;;;;;2.00;1.30;;;17.10;99.90;;;;;;4972318;28;20019;-78
2023/07/05 04:10:58;;;;;;;2.03;1.50;;;17.10;99.90;;;;;;4970040;28;20040;-78
2023/07/05 04:13:24;;;;;;;1.45;1.33;;;17.30;99.90;;;;;;4970862;28;20019;-78
2023/07/05 04:16:00;;;;;;;2.53;1.95;;;17.40;99.90;;;;;;4971138;28;20158;-78
2023/07/05 04:18:27;;;;;;;3.78;2.75;;;17.50;99.90;;;;;;4972484;28;20062;-78
2023/07/05 04:20:53;;;;;;;3.03;1.85;;;17.70;99.90;;;;;;4970109;28;20093;-79
2023/07/05 04:23:18;;;;;;;6.32;1.52;;;17.80;99.90;;;;;;4969996;28;20117;-78
2023/07/05 04:25:44;;;;;;;1.45;1.15;;;17.90;99.90;;;;;;4969774;28;20059;-78
2023/07/05 04:28:10;;;;;;;4.90;1.92;;;18.00;99.90;;;;;;4969588;28;20023;-80
2023/07/05 04:30:35;;;;;;;2.25;1.30;;;18.00;99.90;;;;;;4971262;28;20053;-78
2023/07/05 04:33:01;;;;;;;1.33;1.23;;;18.00;99.90;;;;;;4969781;28;20018;-79
2023/07/05 04:35:26;;;;;;;4.32;1.52;;;18.10;99.90;;;;;;4970716;28;20156;-80
2023/07/05 04:37:52;;;;;;;2.70;1.40;;;18.00;99.90;;;;;;4969753;28;20488;-80
2023/07/05 04:40:20;;;;;;;1.92;1.70;;;18.10;99.90;;;;;;4970674;28;20066;-79
2023/07/05 04:42:46;;;;;;;2.28;1.40;;;18.30;99.90;;;;;;4970040;28;20019;-78
2023/07/05 04:45:11;;;;;;;1.95;1.40;;;18.50;99.90;;;;;;4969984;28;20034;-81
2023/07/05 04:47:37;;;;;;;1.60;1.25;;;18.70;99.90;;;;;;4972582;28;20057;-78
2023/07/05 04:50:03;;;;;;;1.50;1.33;;;18.70;99.90;;;;;;4975524;28;20391;-82
2023/07/05 04:52:28;;;;;;;2.13;1.50;;;18.80;99.90;;;;;;4971243;28;20042;-78
2023/07/05 04:54:54;;;;;;;3.25;1.15;;;18.90;99.90;;;;;;4969161;28;20027;-78
2023/07/05 04:57:20;;;;;;;1.48;1.08;;;18.80;99.90;;;;;;4969210;28;20522;-78
2023/07/05 04:59:45;;;;;;;4.07;1.20;;;18.80;99.90;;;;;;4968838;28;20091;-80
2023/07/05 05:02:11;;;;;;;1.63;1.30;;;18.80;99.90;;;;;;4969778;28;20097;-78
2023/07/05 05:04:37;;;;;;;1.98;1.30;;;18.80;99.90;;;;;;4970701;28;20029;-83
2023/07/05 05:07:05;;;;;;;1.45;1.35;;;18.80;99.90;;;;;;4969511;28;20068;-81
2023/07/05 05:09:31;;;;;;;1.48;1.38;;;18.90;99.90;;;;;;4970880;28;20027;-81
2023/07/05 05:11:57;;;;;;;2.45;1.42;;;18.90;99.90;;;;;;4969544;28;20038;-80
2023/07/05 05:14:22;;;;;;;3.35;2.05;;;18.90;99.90;;;;;;4969005;28;20089;-79
2023/07/05 05:16:48;;;;;;;5.25;1.60;;;18.90;99.90;;;;;;4969185;28;20035;-79
2023/07/05 05:19:14;;;;;;;1.15;1.05;;;18.90;99.90;;;;;;4970548;28;20081;-79
2023/07/05 05:21:39;;;;;;;1.20;1.08;;;18.90;99.90;;;;;;4970165;28;20305;-78
2023/07/05 05:24:05;;;;;;;1.52;1.27;;;19.10;99.90;;;;;;4969120;28;20027;-78
2023/07/05 05:26:30;;;;;;;1.90;1.10;;;19.20;99.90;;;;;;4970145;28;20316;-79
2023/07/05 05:28:56;;;;;;;1.92;1.42;;;19.20;99.90;;;;;;4968472;28;20113;-78
2023/07/05 05:31:22;;;;;;;1.70;1.60;;;19.20;99.90;;;;;;4970235;28;20436;-81
2023/07/05 05:33:47;;;;;;;1.30;1.20;;;19.30;99.90;;;;;;4970990;28;20035;-79
2023/07/05 05:36:13;;;;;;;1.55;1.45;;;19.30;99.90;;;;;;4970320;28;20047;-82
2023/07/05 05:38:39;;;;;;;0.90;0.90;;;19.40;99.90;;;;;;4969339;28;20027;-77
2023/07/05 05:41:10;;;;;;;2.42;1.50;;;19.30;99.90;;;;;;4958370;28;20053;-77
2023/07/05 05:43:39;;;;;;;1.00;0.90;;;19.20;99.90;;;;;;4965873;28;20031;-81
2023/07/05 05:46:07;;;;;;;1.48;1.15;;;19.10;99.90;;;;;;4971404;28;20078;-80
2023/07/05 05:48:33;;;;;;;0.77;0.77;;;19.00;99.90;;;;;;4980863;28;20015;-83
2023/07/05 05:50:58;;;;;;;3.30;1.05;;;18.60;99.90;;;;;;4983954;28;20011;-83
2023/07/05 05:53:24;;;;;;;3.70;0.93;;;18.10;99.90;;;;;;4985411;28;20058;-82
2023/07/05 06:02:38;;;;;;;2.55;1.10;;;17.20;99.90;;;;;;4973207;28;20392;-81
2023/07/05 06:11:48;;;;;;;1.25;1.15;;;16.70;99.90;;;;;;4982570;28;20110;-78
2023/07/05 06:18:08;;;;;;;1.40;1.25;;;16.50;99.90;;;;;;4997137;28;20029;-80
2023/07/05 06:20:45;;;;;;;2.40;1.02;;;16.40;99.90;;;;;;4993886;28;20022;-81
2023/07/05 06:23:11;;;;;;;0.95;0.95;;;16.30;99.90;;;;;;4994972;28;20037;-78
2023/07/05 06:25:36;;;;;;;1.00;1.00;;;16.20;99.90;;;;;;5007744;28;20022;-81
2023/07/05 06:28:02;;;;;;;0.80;0.80;;;16.20;99.90;;;;;;5014259;28;20023;-79
2023/07/05 06:30:28;;;;;;;0.60;0.60;;;16.20;99.90;;;;;;5017596;28;20078;-82
2023/07/05 06:32:55;;;;;;;1.95;1.00;;;16.30;99.90;;;;;;5019446;28;20018;-82
2023/07/05 06:35:20;;;;;;;0.60;0.60;;;16.30;99.90;;;;;;5016316;28;20073;-81
2023/07/05 06:38:07;;;;;;;1.48;0.60;;;16.30;99.90;;;;;;5083021;27;1377968;-81
2023/07/05 06:40:33;;;;;;;1.27;1.10;;;16.20;99.90;;;;;;5109483;28;20033;-79
2023/07/05 06:43:00;;;;;;;2.40;0.55;;;16.20;99.90;;;;;;5108534;28;20035;-83
2023/07/05 06:45:28;;;;;;;0.45;0.40;;;16.20;99.90;;;;;;5109649;28;20091;-80
2023/07/05 06:47:54;;;;;;;1.27;0.60;;;16.10;99.90;;;;;;5108711;28;20032;-81
2023/07/05 06:50:19;;;;;;;1.85;0.98;;;16.10;99.90;;;;;;5109675;28;20046;-81
2023/07/05 06:52:45;;;;;;;1.33;0.77;;;16.10;99.90;;;;;;5109298;28;20096;-80
2023/07/05 06:55:11;;;;;;;1.58;0.60;;;16.10;99.90;;;;;;5104819;28;20020;-81
2023/07/05 06:57:37;;;;;;;1.05;0.95;;;16.20;99.90;;;;;;5110673;28;20020;-79
2023/07/05 07:00:06;;;;;;;0.95;0.70;;;17.10;99.90;;;;;;5101308;28;20065;-80
2023/07/05 07:02:32;;;;;;;1.77;0.95;;;17.90;99.90;;;;;;5098993;28;20212;-81
2023/07/05 07:04:58;;;;;;;0.43;0.43;;;19.10;99.90;;;;;;5101004;28;20585;-82
2023/07/05 07:07:24;;;;;;;0.65;0.65;;;19.60;99.90;;;;;;5088772;28;20141;-80
2023/07/05 07:09:50;;;;;;;0.73;0.73;;;18.90;99.90;;;;;;5092089;28;20536;-81
2023/07/05 07:12:16;;;;;;;0.50;0.50;;;18.00;99.90;;;;;;5090120;28;20496;-79
2023/07/05 07:14:41;;;;;;;1.88;1.27;;;17.50;99.90;;;;;;5077302;28;20021;-81
2023/07/05 07:17:07;;;;;;;1.02;0.98;;;17.30;99.90;;;;;;5072564;28;20037;-79
2023/07/05 07:19:32;;;;;;;0.40;0.40;;;17.60;99.90;;;;;;5076257;28;20028;-78
2023/07/05 07:21:58;;;;;;;0.70;0.68;;;18.50;99.90;;;;;;5076601;28;20025;-81
2023/07/05 07:24:24;;;;;;;1.38;0.55;;;19.10;99.90;;;;;;5074268;28;20033;-79
2023/07/05 07:26:51;;;;;;;0.60;0.57;;;20.10;99.90;;;;;;5076773;28;20045;-79
2023/07/05 07:29:17;;;;;;;0.50;0.45;;;19.60;99.90;;;;;;5086564;28;20021;-80
2023/07/05 07:31:42;;;;;;;0.88;0.85;;;19.10;99.90;;;;;;5078948;28;20067;-79
2023/07/05 07:34:08;;;;;;;2.60;0.98;;;18.90;99.90;;;;;;5080113;28;20023;-79
2023/07/05 07:36:35;;;;;;;0.30;0.30;;;18.90;99.90;;;;;;5085583;28;20044;-81
2023/07/05 07:39:01;;;;;;;0.70;0.40;;;18.90;99.90;;;;;;5079705;28;20025;-79
2023/07/05 07:41:36;;;;;;;0.55;0.55;;;19.00;99.90;;;;;;5091446;28;20028;-80
2023/07/05 07:44:06;;;;;;;1.17;0.68;;;19.20;99.90;;;;;;5087445;28;20024;-83
2023/07/05 07:46:35;;;;;;;0.98;0.73;;;19.70;99.90;;;;;;5101247;28;20039;-79
2023/07/05 07:49:02;;;;;;;0.60;0.50;;;19.30;99.90;;;;;;5088568;28;20058;-77
2023/07/05 07:51:31;;;;;;;3.10;0.60;;;19.60;99.90;;;;;;5078578;28;20643;-78
2023/07/05 07:53:57;;;;;;;0.90;0.57;;;19.70;99.90;;;;;;5092933;28;20253;-78
2023/07/05 07:56:24;;;;;;;0.45;0.45;;;19.60;99.90;;;;;;5082750;28;20278;-84
2023/07/05 07:58:53;;;;;;;0.85;0.55;;;20.30;99.90;;;;;;5088874;28;20058;-78
2023/07/05 08:01:19;;;;;;;1.20;0.90;;;19.90;99.90;;;;;;5094890;28;20032;-79
2023/07/05 08:03:45;;;;;;;1.13;0.70;;;18.60;99.90;;;;;;5095378;28;20023;-78
2023/07/05 08:06:36;;;;;;;1.55;1.30;;;17.80;99.90;;;;;;5094597;28;20017;-80
2023/07/05 08:09:08;;;;;;;2.90;1.25;;;16.70;99.90;;;;;;5094834;28;20028;-79
2023/07/05 08:11:34;;;;;;;2.05;1.45;;;16.30;99.90;;;;;;5096954;28;20580;-79
2023/07/05 08:14:01;;;;;;;1.70;1.10;;;15.90;99.90;;;;;;5094672;28;20061;-80
2023/07/05 08:16:26;;;;;;;5.80;2.13;;;15.60;99.90;;;;;;5097731;28;20037;-82
2023/07/05 08:18:53;;;;;;;1.77;1.63;;;15.70;99.90;;;;;;5146672;22;20037;-82
2023/07/05 08:21:19;;;;;;;2.95;1.55;;;16.00;99.90;;;;;;5229202;22;20042;-83
2023/07/05 08:23:45;;;;;;;1.52;1.42;;;16.10;99.90;;;;;;5039705;28;20018;-80
2023/07/05 08:26:12;;;;;;;1.85;0.95;;;16.20;99.90;;;;;;5036905;28;20010;-82
2023/07/05 08:28:38;;;;;;;2.55;1.20;;;16.80;99.90;;;;;;5033607;28;20037;-79
2023/07/05 08:31:06;;;;;;;2.88;1.40;;;17.90;99.90;;;;;;5038200;28;20033;-79
2023/07/05 08:33:33;;;;;;;3.20;1.30;;;18.10;99.90;;;;;;5035620;28;20048;-80
2023/07/05 08:36:16;;;;;;;1.58;1.40;;;18.70;99.90;;;;;;5035699;28;20056;-81
2023/07/05 08:38:47;;;;;;;2.63;1.75;;;19.10;99.90;;;;;;5038335;28;20024;-80
2023/07/05 08:41:37;;;;;;;2.42;1.20;;;19.20;99.90;;;;;;5029292;28;20021;-81
2023/07/05 08:44:14;;;;;;;1.95;1.30;;;18.70;99.90;;;;;;5014194;28;20026;-79
2023/07/05 08:46:41;;;;;;;3.75;1.48;;;18.30;99.90;;;;;;5009270;28;20102;-80
2023/07/05 08:49:17;;;;;;;2.05;1.20;;;18.00;99.90;;;;;;5025615;28;20034;-80
2023/07/05 08:51:42;;;;;;;2.47;1.65;;;18.40;99.90;;;;;;5014594;28;20038;-78
2023/07/05 08:54:12;;;;;;;2.47;1.80;;;19.10;99.90;;;;;;5006637;28;20027;-79
2023/07/05 08:56:48;;;;;;;1.63;1.25;;;19.50;99.90;;;;;;5001105;28;20034;-80
2023/07/05 08:59:17;;;;;;;2.28;1.80;;;19.10;99.90;;;;;;5008696;28;20026;-81
2023/07/05 09:01:44;;;;;;;;;;;18.90;99.90;;;;;;5004825;28;20019;-79
2023/07/05 09:04:22;;;;;;;1.85;1.75;;;19.20;99.90;;;;;;5006991;28;19902;-79
2023/07/05 09:07:10;;;;;;;2.40;1.60;;;19.50;99.90;;;;;;5005425;28;20097;-79
2023/07/05 09:10:07;;;;;;;5.00;1.88;;;19.90;99.90;;;;;;5001977;28;20389;-78
2023/07/05 09:12:34;;;;;;;3.97;2.50;;;20.00;99.90;;;;;;5008042;28;20041;-81
2023/07/05 09:15:22;;;;;;;3.20;2.08;;;20.00;99.90;;;;;;4996228;28;20018;-79
2023/07/05 09:17:56;;;;;;;2.50;1.97;;;20.20;99.90;;;;;;5007535;28;20026;-81
2023/07/05 09:20:45;;;;;;;2.55;1.70;;;20.10;99.90;;;;;;5003912;28;20270;-79
2023/07/05 09:23:21;;;;;;;3.28;1.63;;;19.70;99.90;;;;;;5001799;28;20030;-78
2023/07/05 09:25:51;;;;;;;1.98;1.60;;;19.60;99.90;;;;;;5003419;28;20022;-79
2023/07/05 09:28:25;;;;;;;2.65;1.75;;;19.70;99.90;;;;;;5007401;28;20014;-79
2023/07/05 09:30:52;;;;;;;4.45;1.70;;;19.60;99.90;;;;;;5014890;28;19998;-79
2023/07/05 09:33:33;;;;;;;2.83;1.80;;;19.30;99.90;;;;;;5013979;28;20026;-79
2023/07/05 09:36:08;;;;;;;3.25;1.75;;;19.40;99.90;;;;;;5008663;28;20044;-79
2023/07/05 09:38:37;;;;;;;2.83;1.65;;;19.70;99.90;;;;;;5009551;28;20018;-79
2023/07/05 09:41:17;;;;;;;2.72;1.77;;;19.70;99.90;;;;;;4998706;28;20054;-80
2023/07/05 09:43:43;;;;;;;2.13;1.70;;;19.90;99.90;;;;;;5009820;28;20557;-80
2023/07/05 09:46:20;;;;;;;2.67;2.00;;;20.10;99.90;;;;;;5023255;28;20034;-82
2023/07/05 09:48:46;;;;;;;3.03;1.95;;;20.20;99.90;;;;;;5001330;28;20508;-79
2023/07/05 09:51:13;;;;;;;4.38;2.10;;;19.90;99.90;;;;;;5010168;28;20054;-79
2023/07/05 09:53:47;;;;;;;1.92;1.60;;;20.00;99.90;;;;;;5011565;28;20030;-79
2023/07/05 09:56:17;;;;;;;4.13;2.17;;;20.10;99.90;;;;;;5000450;28;20118;-79
2023/07/05 09:58:44;;;;;;;;;;;20.20;99.90;;;;;;5011770;28;20034;-80
2023/07/05 10:01:18;;;;;;;3.05;1.42;;;20.00;99.90;;;;;;5016704;28;19960;-80
2023/07/05 10:03:56;;;;;;;2.50;1.80;;;20.10;99.90;;;;;;5031740;28;20025;-78
2023/07/05 10:06:27;;;;;;;3.72;2.00;;;20.30;99.90;;;;;;5030325;28;20053;-81
2023/07/05 10:08:55;;;;;;;2.88;1.70;;;20.60;99.90;;;;;;5021127;28;20117;-81
2023/07/05 10:11:33;;;;;;;1.98;1.58;;;20.70;99.90;;;;;;5025458;28;20337;-81
2023/07/05 10:14:06;;;;;;;4.47;2.10;;;20.90;99.90;;;;;;5020473;28;20021;-80
2023/07/05 10:17:05;;;;;;;2.58;1.90;;;20.90;99.90;;;;;;5026876;28;20032;-78
2023/07/05 10:19:49;;;;;;;2.00;1.42;;;20.80;99.90;;;;;;5019908;28;20032;-82
2023/07/05 10:22:34;;;;;;;1.60;1.48;;;20.40;99.90;;;;;;5029751;28;20053;-79
2023/07/05 10:25:20;;;;;;;3.00;2.08;;;20.10;99.90;;;;;;5021057;28;20017;-80
2023/07/05 10:27:51;;;;;;;3.25;2.08;;;20.40;99.90;;;;;;5016993;28;20061;-80
2023/07/05 10:30:20;;;;;;;1.70;1.58;;;20.30;99.90;;;;;;5020855;28;20512;-80
2023/07/05 10:33:06;;;;;;;2.67;1.90;;;20.60;99.60;;;;;;5022509;28;20464;-78
2023/07/05 10:35:33;;;;;;;5.60;1.92;;;20.70;99.90;;;;;;5030953;28;20010;-78
2023/07/05 10:38:00;;;;;;;2.85;1.85;;;20.80;99.00;;;;;;5022068;28;20298;-84
2023/07/05 10:40:26;;;;;;;4.30;2.25;;;21.30;97.90;;;;;;5046717;28;20021;-78
2023/07/05 10:43:00;;;;;;;3.33;2.47;;;21.30;97.60;;;;;;5041210;28;20486;-82
2023/07/05 10:45:34;;;;;;;3.97;2.22;;;21.40;96.70;;;;;;5048672;28;20105;-80
2023/07/05 10:48:03;;;;;;;3.67;2.75;;;21.20;95.90;;;;;;5038147;28;20025;-80
2023/07/05 10:50:33;;;;;;;;;;;21.50;94.00;;;;;;5033550;28;20116;-84
2023/07/05 10:53:04;;;;;;;6.05;2.78;;;21.90;93.50;;;;;;5028111;28;19920;-80
2023/07/05 10:56:05;;;;;;;17.65;2.30;;;22.20;92.40;;;;;;5029563;28;20034;-87
2023/07/05 10:59:13;;;;;;;2.00;1.58;;;22.30;92.20;;;;;;5032057;28;20040;-82
2023/07/05 11:01:55;;;;;;;3.13;1.85;;;21.80;91.30;;;;;;5050548;28;20096;-80
2023/07/05 11:04:24;;;;;;;2.97;2.13;;;21.60;88.10;;;;;;5028479;28;20025;-84
2023/07/05 11:06:52;;;;;;;4.47;1.98;;;21.90;88.50;;;;;;5033574;28;20337;-81
2023/07/05 11:09:18;;;;;;;2.65;2.00;;;22.40;90.00;;;;;;5033798;28;20029;-79
2023/07/05 11:11:59;;;;;;;2.05;1.85;;;23.10;87.80;;;;;;5027500;28;20535;-79
2023/07/05 11:14:28;;;;;;;3.15;1.80;;;23.30;84.30;;;;;;5027935;28;20021;-82
2023/07/05 11:16:55;;;;;;;3.70;1.90;;;23.10;84.70;;;;;;5026776;28;20042;-82
2023/07/05 11:19:26;;;;;;;3.33;1.90;;;23.00;83.60;;;;;;5027935;28;20045;-83
2023/07/05 11:21:52;;;;;;;2.47;2.17;;;23.10;81.60;;;;;;5027657;28;20103;-83
2023/07/05 11:24:36;;;;;;;3.20;2.20;;;23.20;82.20;;;;;;5031139;28;20379;-80
2023/07/05 11:27:25;;;;;;;2.03;1.60;;;23.70;83.10;;;;;;5032786;28;20029;-79
2023/07/05 11:29:52;;;;;;;2.47;2.10;;;23.80;84.00;;;;;;5020809;28;20049;-79
2023/07/05 11:33:00;;;;;;;2.28;2.05;;;24.30;81.80;;;;;;5033396;28;20029;-80
2023/07/05 11:35:45;;;;;;;3.60;2.08;;;24.00;80.90;;;;;;5039201;28;20021;-81
2023/07/05 11:38:37;;;;;;;3.00;1.80;;;23.80;79.40;;;;;;5035078;28;20103;-78
2023/07/05 11:41:24;;;;;;;3.25;2.38;;;23.70;81.10;;;;;;5038630;28;20336;-80
2023/07/05 11:44:18;;;;;;;3.38;2.67;;;23.60;80.00;;;;;;5029989;28;20041;-84
2023/07/05 11:46:45;;;;;;;3.25;2.10;;;23.20;80.10;;;;;;5014540;28;20061;-79
2023/07/05 11:49:20;;;;;;;2.70;2.28;;;23.30;81.00;;;;;;5009837;28;20649;-79
2023/07/05 11:51:50;;;;;;;4.93;2.42;;;23.60;81.30;;;;;;5011277;28;20425;-82
2023/07/05 11:54:19;;;;;;;3.72;2.72;;;24.00;80.20;;;;;;5008646;28;20445;-79
2023/07/05 11:56:46;;;;;;;2.83;2.53;;;24.60;80.40;;;;;;5015405;28;20100;-81
2023/07/05 11:59:17;;;;;;;4.43;2.30;;;24.60;78.40;;;;;;5011968;28;20113;-79
2023/07/05 12:01:43;;;;;;;5.05;2.53;;;24.80;75.80;;;;;;5017241;28;20030;-81
2023/07/05 12:04:18;;;;;;;3.75;2.72;;;25.10;73.10;;;;;;5020824;28;20022;-79
2023/07/05 12:06:45;;;;;;;3.28;2.58;;;25.40;71.40;;;;;;5022324;28;20348;-79
2023/07/05 12:09:26;;;;;;;4.07;2.72;;;25.10;71.40;;;;;;5021081;28;20049;-80
2023/07/05 12:11:55;;;;;;;3.67;2.35;;;24.90;70.20;;;;;;5021463;28;20034;-80
2023/07/05 12:14:21;;;;;;;;;;;24.80;68.90;;;;;;5023714;28;20085;-78
2023/07/05 12:16:47;;;;;;;5.97;3.17;;;23.90;72.00;;;;;;5022202;28;20122;-79
2023/07/05 12:19:38;;;;;;;4.50;2.97;;;24.30;72.50;;;;;;5020732;28;20025;-78
2023/07/05 12:22:14;;;;;;;4.95;2.13;;;24.50;71.20;;;;;;5013004;28;20050;-80
2023/07/05 12:24:47;;;;;;;3.80;2.88;;;25.00;71.00;;;;;;5020203;28;20041;-81
2023/07/05 12:27:21;;;;;;;2.35;2.13;;;24.90;71.00;;;;;;5029006;28;20294;-77
2023/07/05 12:29:56;;;;;;;5.78;2.38;;;24.60;69.30;;;;;;5040419;28;20021;-82
2023/07/05 12:32:32;;;;;;;3.35;2.30;;;24.80;70.50;;;;;;5024074;28;20021;-81
2023/07/05 12:35:20;;;;;;;5.43;2.58;;;24.90;68.20;;;;;;5013340;28;20022;-79
2023/07/05 12:37:52;;;;;;;3.50;1.87;;;25.30;68.10;;;;;;5010021;28;20041;-80
2023/07/05 12:40:25;;;;;;;2.83;1.88;;;25.80;66.30;;;;;;5009768;28;20356;-82
2023/07/05 12:42:59;;;;;;;3.20;1.85;;;26.50;65.30;;;;;;5011973;28;20029;-79
2023/07/05 12:45:45;;;;;;;4.70;2.20;;;26.10;64.60;;;;;;5007793;28;20322;-86
2023/07/05 12:48:19;;;;;;;2.92;2.20;;;25.30;65.00;;;;;;5009342;28;20118;-86
2023/07/05 12:50:45;;;;;;;2.38;2.17;;;25.20;66.50;;;;;;5008637;28;20030;-83
2023/07/05 12:53:21;;;;;;;3.72;2.83;;;25.50;66.10;;;;;;5010178;28;20034;-82
2023/07/05 12:55:58;;;;;;;3.60;2.42;;;25.80;64.00;;;;;;5008070;28;20033;-80
2023/07/05 12:58:26;;;;;;;3.65;2.50;;;25.70;65.30;;;;;;5008948;28;20495;-79
2023/07/05 13:00:53;;;;;;;2.30;1.98;;;25.80;63.90;;;;;;5010435;28;20386;-79
2023/07/05 13:03:20;;;;;;;2.97;2.03;;;25.50;63.30;;;;;;5011248;28;20037;-83
2023/07/05 13:05:46;;;;;;;3.20;2.28;;;26.20;64.70;;;;;;5009244;28;20544;-79
2023/07/05 13:08:16;;;;;;;2.40;2.20;;;26.50;64.80;;;;;;5012782;28;20026;-79
2023/07/05 13:10:44;;;;;;;3.92;2.28;;;26.60;62.80;;;;;;5009354;28;20026;-82
2023/07/05 13:13:32;;;;;;;3.42;2.33;;;27.00;63.90;;;;;;5021814;28;20109;-80
2023/07/05 13:16:22;;;;;;;3.05;2.17;;;27.30;65.70;;;;;;5010964;28;20521;-82
2023/07/05 13:19:05;;;;;;;2.97;2.03;;;27.50;60.10;;;;;;5010671;28;20032;-80
2023/07/05 13:21:45;;;;;;;4.93;2.33;;;27.10;62.40;;;;;;5009679;28;20061;-79
2023/07/05 13:24:26;;;;;;;4.32;2.60;;;26.10;62.00;;;;;;5010007;28;20018;-80